createdAt,value
2019-02-06T00:01:57.026Z,58.03
2019-02-06T00:04:25.925Z,58.70
2019-02-06T00:06:54.811Z,69.17
2019-02-06T00:09:23.567Z,70.20
2019-02-06T00:11:52.284Z,68.93
2019-02-06T00:14:21.413Z,75.10
2019-02-06T00:16:50.316Z,67.03
2019-02-06T00:19:19.354Z,75.50
2019-02-06T00:21:48.548Z,65.77
2019-02-06T00:24:17.438Z,76.47
2019-02-06T00:26:46.588Z,68.67
2019-02-06T00:29:15.248Z,76.90
2019-02-06T00:31:44.151Z,70.27
2019-02-06T00:34:13.370Z,66.10
2019-02-06T00:36:42.379Z,62.23
2019-02-06T00:39:11.734Z,74.73
2019-02-06T00:41:40.436Z,69.77
2019-02-06T00:44:09.213Z,67.83
2019-02-06T00:46:37.874Z,71.27
2019-02-06T00:49:06.594Z,68.37
2019-02-06T00:51:35.811Z,70.67
2019-02-06T00:54:04.800Z,69.03
2019-02-06T00:56:33.721Z,69.03
2019-02-06T00:59:02.677Z,65.70
2019-02-06T01:01:31.680Z,69.97
2019-02-06T01:04:00.389Z,76.97
2019-02-06T01:06:29.453Z,69.20
2019-02-06T01:08:58.450Z,76.40
2019-02-06T01:11:27.440Z,76.13
2019-02-06T01:13:56.158Z,73.77
2019-02-06T01:16:24.912Z,71.30
2019-02-06T01:18:53.582Z,74.80
2019-02-06T01:21:22.546Z,71.57
2019-02-06T01:23:51.536Z,79.43
2019-02-06T01:26:20.219Z,76.13
2019-02-06T01:28:49.483Z,71.23
2019-02-06T01:31:25.964Z,82.00
2019-02-06T01:33:54.616Z,82.77
2019-02-06T01:36:23.648Z,81.30
2019-02-06T01:38:52.296Z,76.77
2019-02-06T01:41:21.280Z,77.67
2019-02-06T01:43:50.027Z,85.33
2019-02-06T01:46:19.050Z,78.77
2019-02-06T01:48:47.835Z,70.23
2019-02-06T01:51:17.051Z,78.33
2019-02-06T01:53:46.197Z,74.43
2019-02-06T01:56:14.808Z,74.97
2019-02-06T01:58:43.946Z,77.80
2019-02-06T02:01:12.551Z,77.97
2019-02-06T02:03:41.587Z,65.97
2019-02-06T02:06:10.747Z,72.33
2019-02-06T02:08:44.498Z,76.90
2019-02-06T02:11:13.767Z,74.77
2019-02-06T02:13:42.965Z,75.40
2019-02-06T02:16:11.659Z,74.90
2019-02-06T02:18:40.568Z,69.17
2019-02-06T02:21:09.455Z,69.00
2019-02-06T02:23:38.874Z,67.90
2019-02-06T02:26:07.852Z,69.97
2019-02-06T02:28:36.820Z,68.43
2019-02-06T02:31:05.551Z,74.40
2019-02-06T02:33:34.435Z,77.17
2019-02-06T02:36:15.074Z,69.83
2019-02-06T02:38:34.003Z,75.40
2019-02-06T02:41:02.661Z,72.37
2019-02-06T02:43:31.551Z,70.93
2019-02-06T02:46:00.541Z,75.77
2019-02-06T02:48:29.427Z,72.53
2019-02-06T02:50:58.907Z,76.57
2019-02-06T02:53:27.584Z,69.07
2019-02-06T02:55:56.719Z,70.23
2019-02-06T02:58:25.875Z,76.50
2019-02-06T03:01:31.879Z,70.60
2019-02-06T03:04:08.314Z,70.87
2019-02-06T03:06:37.212Z,65.00
2019-02-06T03:09:11.738Z,63.40
2019-02-06T03:11:40.402Z,65.27
2019-02-06T03:14:09.124Z,68.73
2019-02-06T03:16:37.757Z,62.83
2019-02-06T03:19:06.648Z,62.67
2019-02-06T03:21:35.298Z,68.07
2019-02-06T03:24:04.027Z,62.07
2019-02-06T03:26:32.742Z,62.93
2019-02-06T03:29:01.627Z,61.07
2019-02-06T03:31:30.680Z,58.60
2019-02-06T03:33:59.690Z,61.73
2019-02-06T03:36:39.775Z,59.43
2019-02-06T03:38:59.025Z,60.67
2019-02-06T03:41:27.885Z,65.17
2019-02-06T03:43:56.792Z,61.53
2019-02-06T03:46:25.991Z,60.77
2019-02-06T03:48:54.803Z,60.23
2019-02-06T03:51:23.678Z,63.20
2019-02-06T03:53:52.892Z,65.17
2019-02-06T03:56:21.799Z,68.90
2019-02-06T03:58:50.957Z,70.47
2019-02-06T04:01:19.684Z,62.60
2019-02-06T04:03:48.349Z,64.77
2019-02-06T04:06:17.238Z,63.73
2019-02-06T04:08:45.936Z,60.17
2019-02-06T04:11:14.619Z,68.57
2019-02-06T04:13:43.536Z,60.80
2019-02-06T04:16:12.462Z,66.43
2019-02-06T04:18:41.899Z,65.53
2019-02-06T04:21:10.535Z,70.07
2019-02-06T04:23:39.481Z,58.83
2019-02-06T04:26:08.434Z,65.20
2019-02-06T04:28:37.849Z,60.13
2019-02-06T04:31:06.653Z,61.93
2019-02-06T04:33:36.154Z,67.17
2019-02-06T04:36:05.429Z,56.90
2019-02-06T04:38:34.320Z,60.50
2019-02-06T04:41:02.963Z,66.23
2019-02-06T04:43:32.124Z,64.37
2019-02-06T04:46:01.033Z,61.83
2019-02-06T04:48:32.126Z,60.73
2019-02-06T04:51:00.100Z,63.33
2019-02-06T04:53:29.385Z,62.33
2019-02-06T04:55:58.030Z,64.23
2019-02-06T04:58:26.698Z,66.57
2019-02-06T05:00:55.362Z,64.57
2019-02-06T05:03:25.793Z,70.17
2019-02-06T05:05:55.280Z,73.17
2019-02-06T05:08:24.177Z,76.77
2019-02-06T05:10:52.789Z,73.87
2019-02-06T05:13:21.641Z,72.10
2019-02-06T05:15:50.534Z,68.80
2019-02-06T05:18:19.418Z,76.43
2019-02-06T05:20:49.082Z,71.00
2019-02-06T05:23:18.259Z,70.97
2019-02-06T05:25:46.880Z,66.20
2019-02-06T05:28:18.002Z,70.27
2019-02-06T05:30:46.351Z,75.60
2019-02-06T05:33:15.448Z,69.47
2019-02-06T05:35:44.090Z,62.70
2019-02-06T05:38:13.017Z,66.57
2019-02-06T05:40:41.702Z,69.83
2019-02-06T05:43:10.605Z,61.70
2019-02-06T05:45:39.499Z,67.17
2019-02-06T05:48:08.378Z,57.40
2019-02-06T05:50:37.258Z,67.77
2019-02-06T05:53:06.414Z,62.63
2019-02-06T05:55:35.403Z,68.93
2019-02-06T05:58:04.498Z,57.80
2019-02-06T06:00:44.588Z,64.07
2019-02-06T06:03:13.264Z,58.40
2019-02-06T06:05:42.785Z,63.90
2019-02-06T06:08:11.762Z,57.47
2019-02-06T06:10:41.687Z,62.03
2019-02-06T06:13:10.246Z,61.87
2019-02-06T06:15:39.117Z,55.53
2019-02-06T06:18:07.816Z,59.93
2019-02-06T06:20:36.535Z,56.02
2019-02-06T06:23:05.484Z,57.47
2019-02-06T06:25:34.112Z,56.40
2019-02-06T06:28:03.013Z,55.67
2019-02-06T06:30:31.728Z,63.27
2019-02-06T06:33:01.048Z,59.00
2019-02-06T06:35:30.272Z,57.70
2019-02-06T06:38:01.411Z,62.63
2019-02-06T06:40:29.950Z,57.13
2019-02-06T06:42:58.830Z,58.23
2019-02-06T06:45:27.793Z,55.83
2019-02-06T06:47:56.785Z,58.80
2019-02-06T06:50:25.807Z,64.20
2019-02-06T06:52:54.775Z,62.70
2019-02-06T06:55:24.021Z,57.40
2019-02-06T06:57:52.940Z,53.97
2019-02-06T07:00:26.660Z,55.20
2019-02-06T07:02:55.297Z,58.60
2019-02-06T07:05:25.098Z,59.33
2019-02-06T07:07:54.294Z,54.50
2019-02-06T07:10:23.623Z,60.57
2019-02-06T07:12:52.536Z,62.37
2019-02-06T07:15:23.779Z,64.10
2019-02-06T07:17:52.427Z,56.17
2019-02-06T07:20:21.775Z,54.47
2019-02-06T07:22:51.254Z,62.20
2019-02-06T07:25:20.760Z,56.53
2019-02-06T07:27:49.783Z,62.20
2019-02-06T07:30:23.993Z,59.77
2019-02-06T07:32:52.686Z,62.17
2019-02-06T07:35:21.958Z,61.97
2019-02-06T07:37:51.144Z,60.13
2019-02-06T07:40:20.651Z,61.17
2019-02-06T07:42:49.967Z,66.90
2019-02-06T07:45:19.007Z,66.23
2019-02-06T07:47:48.234Z,65.40
2019-02-06T07:50:19.493Z,66.00
2019-02-06T07:52:48.488Z,53.90
2019-02-06T07:55:17.588Z,61.77
2019-02-06T07:57:46.419Z,56.20
2019-02-06T08:00:15.484Z,62.60
2019-02-06T08:02:44.180Z,59.67
2019-02-06T08:05:15.097Z,63.27
2019-02-06T08:07:43.790Z,59.50
2019-02-06T08:10:16.596Z,61.40
2019-02-06T08:12:45.816Z,59.90
2019-02-06T08:15:15.100Z,57.87
2019-02-06T08:17:43.906Z,53.93
2019-02-06T08:20:14.994Z,60.87
2019-02-06T08:22:43.964Z,55.07
2019-02-06T08:25:14.017Z,58.47
2019-02-06T08:27:43.004Z,54.03
2019-02-06T08:30:18.892Z,59.43
2019-02-06T08:32:47.799Z,48.83
2019-02-06T08:35:16.750Z,63.80
2019-02-06T08:37:45.807Z,53.97
2019-02-06T08:40:15.125Z,55.50
2019-02-06T08:42:44.014Z,55.53
2019-02-06T08:45:13.458Z,47.67
2019-02-06T08:47:42.176Z,43.07
2019-02-06T08:50:11.947Z,57.00
2019-02-06T08:52:40.741Z,56.97
2019-02-06T08:55:12.347Z,53.37
2019-02-06T08:57:41.091Z,51.97
2019-02-06T09:00:13.456Z,54.60
2019-02-06T09:02:42.601Z,55.00
2019-02-06T09:05:11.673Z,52.03
2019-02-06T09:07:40.741Z,48.33
2019-02-06T09:10:13.412Z,52.57
2019-02-06T09:12:42.251Z,48.17
2019-02-06T09:15:11.458Z,42.77
2019-02-06T09:17:40.403Z,50.20
2019-02-06T09:20:12.468Z,51.07
2019-02-06T09:22:42.350Z,47.00
2019-02-06T09:25:12.435Z,49.97
2019-02-06T09:27:41.458Z,46.83
2019-02-06T09:30:12.470Z,50.03
2019-02-06T09:32:41.450Z,48.10
2019-02-06T09:35:10.459Z,45.83
2019-02-06T09:37:39.719Z,44.27
2019-02-06T09:40:09.543Z,46.80
2019-02-06T09:42:38.450Z,46.80
2019-02-06T09:45:07.760Z,45.40
2019-02-06T09:47:36.711Z,46.23
2019-02-06T09:50:08.040Z,39.97
2019-02-06T09:52:37.028Z,43.87
2019-02-06T09:55:06.468Z,38.20
2019-02-06T09:57:35.607Z,40.30
2019-02-06T10:00:06.141Z,40.77
2019-02-06T10:02:34.791Z,40.47
2019-02-06T10:05:03.814Z,42.20
2019-02-06T10:07:32.440Z,41.80
2019-02-06T10:10:01.546Z,41.17
2019-02-06T10:12:30.267Z,35.30
2019-02-06T10:14:59.232Z,40.10
2019-02-06T10:17:28.054Z,36.50
2019-02-06T10:19:56.978Z,41.80
2019-02-06T10:22:25.616Z,28.80
2019-02-06T10:24:54.724Z,43.47
2019-02-06T10:27:24.180Z,38.83
2019-02-06T10:29:52.952Z,33.40
2019-02-06T10:32:22.084Z,37.33
2019-02-06T10:34:50.972Z,34.67
2019-02-06T10:37:19.804Z,36.47
2019-02-06T10:39:48.694Z,38.03
2019-02-06T10:42:17.362Z,29.53
2019-02-06T10:44:46.072Z,31.43
2019-02-06T10:47:15.319Z,31.03
2019-02-06T10:49:44.238Z,34.20
2019-02-06T10:52:12.877Z,33.73
2019-02-06T10:54:41.614Z,28.33
2019-02-06T10:57:10.934Z,31.10
2019-02-06T10:59:39.556Z,31.47
2019-02-06T11:02:08.513Z,28.90
2019-02-06T11:04:37.433Z,26.17
2019-02-06T11:07:08.241Z,27.63
2019-02-06T11:09:46.175Z,30.43
2019-02-06T11:12:07.764Z,26.23
2019-02-06T11:14:36.717Z,23.23
2019-02-06T11:17:05.691Z,28.53
2019-02-06T11:19:34.724Z,27.77
2019-02-06T11:22:03.531Z,22.00
2019-02-06T11:24:32.461Z,23.80
2019-02-06T11:27:01.287Z,28.13
2019-02-06T11:29:30.157Z,26.87
2019-02-06T11:31:58.817Z,28.53
2019-02-06T11:34:27.854Z,23.67
2019-02-06T11:36:56.491Z,25.43
2019-02-06T11:39:25.116Z,22.70
2019-02-06T11:41:53.771Z,28.23
2019-02-06T11:44:23.080Z,25.57
2019-02-06T11:46:51.823Z,25.80
2019-02-06T11:49:24.744Z,25.63
2019-02-06T11:51:53.428Z,25.00
2019-02-06T11:54:22.443Z,28.13
2019-02-06T11:56:51.339Z,31.87
2019-02-06T11:59:20.316Z,28.13
2019-02-06T12:01:52.517Z,23.17
2019-02-06T12:04:21.723Z,27.00
2019-02-06T12:06:50.706Z,24.30
2019-02-06T12:09:19.709Z,25.40
2019-02-06T12:11:48.608Z,27.57
2019-02-06T12:14:17.686Z,27.23
2019-02-06T12:16:46.336Z,22.93
2019-02-06T12:19:14.978Z,25.10
2019-02-06T12:21:44.136Z,21.90
2019-02-06T12:24:12.808Z,23.70
2019-02-06T12:26:42.038Z,22.87
2019-02-06T12:29:10.939Z,22.00
2019-02-06T12:31:39.658Z,24.33
2019-02-06T12:34:08.630Z,22.47
2019-02-06T12:36:37.780Z,22.10
2019-02-06T12:39:10.117Z,21.70
2019-02-06T12:41:38.911Z,22.67
2019-02-06T12:44:07.659Z,22.00
2019-02-06T12:46:36.367Z,23.03
2019-02-06T12:49:05.729Z,23.83
2019-02-06T12:51:34.501Z,23.07
2019-02-06T12:54:03.199Z,21.57
2019-02-06T12:56:31.914Z,27.07
2019-02-06T12:59:00.568Z,21.57
2019-02-06T13:01:29.579Z,24.23
2019-02-06T13:03:58.231Z,24.50
2019-02-06T13:06:26.897Z,22.63
2019-02-06T13:08:55.779Z,28.13
2019-02-06T13:11:24.663Z,23.93
2019-02-06T13:13:53.345Z,22.73
2019-02-06T13:16:22.249Z,21.53
2019-02-06T13:18:51.113Z,23.83
2019-02-06T13:21:20.195Z,22.90
2019-02-06T13:23:49.641Z,22.37
2019-02-06T13:26:18.390Z,23.07
2019-02-06T13:28:47.035Z,21.77
2019-02-06T13:31:16.010Z,22.83
2019-02-06T13:33:45.058Z,20.97
2019-02-06T13:36:14.135Z,21.73
2019-02-06T13:38:43.101Z,18.77
2019-02-06T13:41:11.821Z,21.07
2019-02-06T13:43:40.562Z,20.67
2019-02-06T13:46:09.246Z,23.00
2019-02-06T13:48:38.123Z,20.43
2019-02-06T13:51:15.853Z,22.70
2019-02-06T13:53:37.532Z,20.50
2019-02-06T13:56:06.455Z,22.67
2019-02-06T13:58:35.613Z,21.80
2019-02-06T14:01:04.553Z,20.33
2019-02-06T14:03:33.231Z,25.73
2019-02-06T14:06:01.968Z,20.90
2019-02-06T14:08:31.517Z,25.20
2019-02-06T14:11:00.972Z,29.17
2019-02-06T14:13:30.200Z,26.77
2019-02-06T14:15:59.041Z,26.67
2019-02-06T14:18:27.686Z,27.17
2019-02-06T14:20:56.345Z,29.47
2019-02-06T14:23:48.507Z,25.67
2019-02-06T14:26:54.149Z,32.73
2019-02-06T14:29:40.575Z,30.27
2019-02-06T14:32:44.524Z,28.90
2019-02-06T14:35:38.020Z,27.77
2019-02-06T14:38:46.901Z,25.47
2019-02-06T14:41:29.810Z,32.00
2019-02-06T14:44:29.554Z,29.00
2019-02-06T14:47:11.802Z,32.77
2019-02-06T14:50:06.203Z,28.07
2019-02-06T14:53:34.683Z,29.97
2019-02-06T14:56:35.452Z,29.97
2019-02-06T14:59:26.604Z,31.33
2019-02-06T15:02:19.281Z,32.80
2019-02-06T15:05:27.424Z,31.00
2019-02-06T15:08:27.038Z,33.80
2019-02-06T15:11:19.086Z,34.83
2019-02-06T15:14:26.492Z,35.33
2019-02-06T15:17:48.588Z,35.77
2019-02-06T15:21:07.470Z,37.07
2019-02-06T15:23:50.391Z,37.70
2019-02-06T15:26:49.502Z,39.77
2019-02-06T15:29:31.060Z,35.43
2019-02-06T15:32:43.797Z,41.50
2019-02-06T15:35:41.603Z,45.70
2019-02-06T15:38:29.254Z,49.00
2019-02-06T15:41:30.519Z,43.33
2019-02-06T15:44:35.109Z,47.77
2019-02-06T15:47:37.060Z,40.50
2019-02-06T15:50:26.588Z,51.77
2019-02-06T15:53:20.947Z,50.73
2019-02-06T15:56:16.027Z,57.73
2019-02-06T15:59:13.924Z,55.50
2019-02-06T16:02:20.715Z,56.43
2019-02-06T16:05:52.911Z,61.77
2019-02-06T16:08:55.819Z,55.07
2019-02-06T16:11:42.645Z,50.53
2019-02-06T16:15:01.779Z,60.13
2019-02-06T16:17:59.425Z,56.63
2019-02-06T16:20:40.021Z,68.07
2019-02-06T16:23:41.325Z,64.93
2019-02-06T16:26:49.303Z,61.67
2019-02-06T16:29:40.511Z,60.63
2019-02-06T16:32:22.900Z,60.37
2019-02-06T16:35:27.425Z,64.97
2019-02-06T16:38:30.796Z,65.67
2019-02-06T16:41:31.870Z,69.40
2019-02-06T16:44:08.001Z,72.33
2019-02-06T16:47:18.979Z,63.87
2019-02-06T16:50:25.939Z,69.93
2019-02-06T16:53:11.507Z,73.80
2019-02-06T16:56:19.473Z,79.53
2019-02-06T16:59:35.284Z,72.17
2019-02-06T17:02:48.518Z,68.97
2019-02-06T17:05:54.378Z,71.47
2019-02-06T17:09:19.776Z,70.67
2019-02-06T17:12:11.800Z,64.70
2019-02-06T17:15:21.295Z,77.33
2019-02-06T17:18:47.163Z,66.53
2019-02-06T17:21:50.460Z,72.63
2019-02-06T17:24:54.766Z,71.67
2019-02-06T17:27:49.096Z,73.70
2019-02-06T17:30:45.655Z,69.47
2019-02-06T17:33:40.319Z,68.77
2019-02-06T17:36:38.547Z,64.17
2019-02-06T17:39:53.506Z,66.00
2019-02-06T17:43:00.702Z,59.20
2019-02-06T17:45:42.961Z,60.43
2019-02-06T17:48:46.752Z,50.20
2019-02-06T17:51:58.399Z,52.13
2019-02-06T17:55:18.134Z,54.80
2019-02-06T17:57:47.907Z,53.30
2019-02-06T18:00:59.152Z,57.47
2019-02-06T18:03:33.987Z,58.43
2019-02-06T18:06:02.992Z,50.03
2019-02-06T18:08:32.158Z,52.70
2019-02-06T18:11:03.165Z,50.57
2019-02-06T18:13:32.083Z,49.07
2019-02-06T18:16:01.071Z,46.53
2019-02-06T18:18:29.715Z,48.43
2019-02-06T18:20:58.953Z,44.67
2019-02-06T18:23:28.118Z,49.13
2019-02-06T18:25:57.031Z,53.10
2019-02-06T18:28:26.005Z,46.50
2019-02-06T18:30:54.990Z,43.67
2019-02-06T18:33:23.961Z,47.20
2019-02-06T18:35:55.107Z,46.60
2019-02-06T18:38:23.999Z,44.90
2019-02-06T18:40:52.952Z,42.50
2019-02-06T18:43:22.549Z,40.87
2019-02-06T18:45:51.329Z,47.03
2019-02-06T18:48:22.173Z,42.87
2019-02-06T18:50:51.236Z,42.33
2019-02-06T18:53:19.887Z,41.70
2019-02-06T18:55:51.247Z,45.13
2019-02-06T18:58:19.868Z,44.60
2019-02-06T19:00:48.825Z,45.47
2019-02-06T19:03:20.752Z,45.33
2019-02-06T19:05:49.800Z,40.17
2019-02-06T19:08:18.848Z,38.60
2019-02-06T19:10:48.306Z,43.63
2019-02-06T19:13:17.139Z,44.93
2019-02-06T19:15:56.157Z,41.50
2019-02-06T19:18:16.987Z,45.10
2019-02-06T19:20:45.879Z,45.40
2019-02-06T19:23:14.538Z,42.83
2019-02-06T19:25:43.431Z,40.47
2019-02-06T19:28:13.120Z,49.07
2019-02-06T19:30:41.872Z,43.57
2019-02-06T19:33:10.935Z,45.00
2019-02-06T19:35:39.915Z,41.43
2019-02-06T19:38:08.651Z,44.70
2019-02-06T19:40:37.451Z,43.17
2019-02-06T19:43:06.498Z,39.07
2019-02-06T19:45:35.870Z,44.20
2019-02-06T19:48:15.285Z,46.33
2019-02-06T19:50:37.405Z,45.83
2019-02-06T19:53:06.744Z,48.77
2019-02-06T19:55:35.449Z,42.20
2019-02-06T19:58:05.396Z,43.60
2019-02-06T20:00:34.876Z,43.10
2019-02-06T20:03:04.720Z,47.83
2019-02-06T20:05:33.771Z,46.80
2019-02-06T20:08:02.758Z,48.10
2019-02-06T20:10:34.087Z,50.17
2019-02-06T20:13:10.680Z,49.20
2019-02-06T20:15:33.864Z,52.57
2019-02-06T20:18:02.638Z,51.27
2019-02-06T20:20:31.994Z,45.20
2019-02-06T20:23:01.070Z,50.90
2019-02-06T20:25:29.935Z,53.23
2019-02-06T20:27:58.644Z,60.30
2019-02-06T20:30:28.235Z,56.13
2019-02-06T20:32:57.315Z,61.07
2019-02-06T20:35:26.550Z,63.10
2019-02-06T20:37:56.002Z,59.33
2019-02-06T20:40:27.265Z,59.03
2019-02-06T20:42:56.079Z,67.10
2019-02-06T20:45:24.791Z,64.00
2019-02-06T20:48:01.825Z,59.10
2019-02-06T20:50:32.068Z,57.63
2019-02-06T20:53:01.670Z,75.33
2019-02-06T20:55:30.649Z,70.40
2019-02-06T20:57:59.614Z,67.23
2019-02-06T21:00:30.904Z,74.93
2019-02-06T21:02:59.679Z,72.07
2019-02-06T21:05:28.465Z,68.60
2019-02-06T21:07:57.161Z,71.27
2019-02-06T21:10:27.467Z,68.93
2019-02-06T21:12:56.576Z,79.50
2019-02-06T21:15:25.830Z,82.87
2019-02-06T21:17:54.888Z,78.03
2019-02-06T21:20:24.329Z,82.77
2019-02-06T21:22:53.475Z,75.07
2019-02-06T21:25:22.586Z,89.10
2019-02-06T21:27:51.340Z,80.47
2019-02-06T21:30:25.872Z,81.43
2019-02-06T21:32:54.739Z,83.03
2019-02-06T21:35:23.610Z,81.63
2019-02-06T21:37:52.490Z,77.67
2019-02-06T21:40:23.275Z,91.40
2019-02-06T21:42:52.432Z,88.73
2019-02-06T21:45:21.258Z,79.07
2019-02-06T21:47:50.163Z,90.30
2019-02-06T21:50:20.024Z,84.33
2019-02-06T21:52:48.669Z,79.73
2019-02-06T21:55:18.470Z,94.53
2019-02-06T21:57:47.211Z,85.23
2019-02-06T22:00:21.848Z,94.57
2019-02-06T22:02:50.913Z,94.93
2019-02-06T22:05:19.609Z,103.77
2019-02-06T22:07:48.755Z,99.93
2019-02-06T22:10:20.062Z,98.47
2019-02-06T22:12:48.772Z,103.63
2019-02-06T22:15:22.265Z,91.37
2019-02-06T22:17:51.074Z,98.03
2019-02-06T22:20:19.941Z,95.90
2019-02-06T22:22:49.205Z,92.13
2019-02-06T22:25:18.443Z,92.53
2019-02-06T22:27:47.306Z,105.07
2019-02-06T22:30:23.981Z,98.33
2019-02-06T22:32:52.931Z,99.37
2019-02-06T22:35:22.387Z,93.63
2019-02-06T22:37:51.599Z,93.47
2019-02-06T22:40:22.143Z,101.50
2019-02-06T22:42:50.787Z,102.77
2019-02-06T22:45:21.381Z,103.53
2019-02-06T22:47:50.947Z,105.70
2019-02-06T22:50:21.967Z,102.33
2019-02-06T22:52:50.694Z,103.50
2019-02-06T22:55:19.442Z,106.97
2019-02-06T22:57:48.439Z,103.83
2019-02-06T23:00:48.875Z,99.80
2019-02-06T23:03:21.209Z,105.67
2019-02-06T23:05:49.947Z,106.43
2019-02-06T23:08:18.663Z,113.87
2019-02-06T23:10:47.627Z,112.40
2019-02-06T23:13:16.914Z,108.07
2019-02-06T23:15:45.865Z,116.60
2019-02-06T23:18:14.684Z,116.37
2019-02-06T23:20:43.423Z,106.07
2019-02-06T23:23:12.156Z,111.20
2019-02-06T23:25:43.143Z,118.40
2019-02-06T23:28:11.593Z,116.57
2019-02-06T23:30:40.537Z,121.80
2019-02-06T23:33:09.507Z,117.33
2019-02-06T23:35:38.506Z,114.37
2019-02-06T23:38:08.172Z,120.03
2019-02-06T23:40:37.109Z,114.50
2019-02-06T23:43:06.707Z,123.33
2019-02-06T23:45:35.376Z,119.57
2019-02-06T23:48:05.952Z,108.73
2019-02-06T23:50:35.012Z,111.50
2019-02-06T23:53:03.990Z,117.10
2019-02-06T23:55:32.626Z,111.23
2019-02-06T23:58:01.774Z,119.90
